Arthur, Iowa
Current Conditions -  °F | °C
As of 7:55 AM on Monday 22 Dec 2014 (Local Time) from KSLB Reporting Station
Unknown Precip Unknown Precip  
Wind Chill: 30°   Ceiling: 200
Heat Index: 39°   Visibility: 1mi
Dew Point: 39°   Wind: 17mph
Humidity: 100%   Direction: 160°SSE
Pressure: 29.55"   Gusts: NA
Location:  42.33°N, 95.35°W
Report Text: KSLB 221355Z AUTO 16015KT 1SM -UP OVC002 04/04 A2955 RMK AO2 P0001
Loading
Personal Weather Stations






























Interactive Weather Map New forecast layout! Learn more

10-Day Weather Forecast

Advertisements
Track Severe Weather on mobile